Time;durP1;ratioP1;P1;durP2;ratioP2;P2;SDS_P1;SDS_P2;PMS_P1;PMS_P2;Temp;Humidity;BMP_temperature;BMP_pressure;BME280_temperature;BME280_humidity;BME280_pressure;Samples;Min_cycle;Max_cycle;Signal;HPM_P1;HPM_P2
2023/06/07 00:01:08;;;;;;;22.55;7.72;;;9.60;99.90;;;;;;5033733;28;20049;-29
2023/06/07 00:03:36;;;;;;;17.73;7.40;;;9.60;99.90;;;;;;5033689;28;20085;-29
2023/06/07 00:06:02;;;;;;;18.25;7.10;;;9.50;99.90;;;;;;5033591;28;20056;-29
2023/06/07 00:08:31;;;;;;;23.08;7.95;;;9.50;99.90;;;;;;5033717;28;20037;-28
2023/06/07 00:10:57;;;;;;;17.63;7.03;;;9.50;99.90;;;;;;5033616;28;20081;-29
2023/06/07 00:13:23;;;;;;;23.33;6.97;;;9.50;99.90;;;;;;5033561;28;20507;-28
2023/06/07 00:15:49;;;;;;;16.70;5.93;;;9.50;99.90;;;;;;5033594;28;20049;-28
2023/06/07 00:18:16;;;;;;;18.63;7.00;;;9.50;99.90;;;;;;5033492;28;20548;-29
2023/06/07 00:20:45;;;;;;;20.52;6.57;;;9.50;99.90;;;;;;5033413;28;20528;-28
2023/06/07 00:23:13;;;;;;;16.10;5.68;;;9.40;99.90;;;;;;5033329;28;20058;-28
2023/06/07 00:25:39;;;;;;;26.13;7.38;;;9.40;99.90;;;;;;5032226;28;20042;-29
2023/06/07 00:28:05;;;;;;;19.92;6.65;;;9.40;99.90;;;;;;5033053;28;20525;-29
2023/06/07 00:30:31;;;;;;;18.60;6.90;;;9.40;99.90;;;;;;5033448;28;20088;-29
2023/06/07 00:32:57;;;;;;;25.08;6.97;;;9.30;99.90;;;;;;5032253;28;20607;-28
2023/06/07 00:35:22;;;;;;;16.58;6.05;;;9.30;99.90;;;;;;5033653;28;20050;-28
2023/06/07 00:37:48;;;;;;;21.50;6.95;;;9.30;99.90;;;;;;5037517;28;20107;-29
2023/06/07 00:40:14;;;;;;;14.38;6.10;;;9.30;99.90;;;;;;5037235;28;20381;-29
2023/06/07 00:42:40;;;;;;;21.92;7.60;;;9.30;99.90;;;;;;5037384;28;20084;-29
2023/06/07 00:45:06;;;;;;;16.40;5.68;;;9.30;99.90;;;;;;5037300;28;20060;-29
2023/06/07 00:47:33;;;;;;;24.92;7.72;;;9.30;99.90;;;;;;5037224;28;20061;-29
2023/06/07 00:49:59;;;;;;;18.33;6.78;;;9.30;99.90;;;;;;5037837;28;20049;-30
2023/06/07 00:52:25;;;;;;;23.38;7.35;;;9.40;99.90;;;;;;5037142;28;20050;-29
2023/06/07 00:54:52;;;;;;;16.23;6.13;;;9.40;99.90;;;;;;5037135;28;20053;-29
2023/06/07 00:57:19;;;;;;;19.35;6.15;;;9.40;99.90;;;;;;5035904;28;20041;-30
2023/06/07 00:59:45;;;;;;;20.42;6.20;;;9.40;99.90;;;;;;5035927;28;20583;-29
2023/06/07 01:02:14;;;;;;;17.13;5.30;;;9.40;99.90;;;;;;5037040;28;20056;-29
2023/06/07 01:04:40;;;;;;;14.88;5.78;;;9.30;99.90;;;;;;5035796;28;20084;-29
2023/06/07 01:07:09;;;;;;;21.33;5.75;;;9.20;99.90;;;;;;5036157;28;20362;-29
2023/06/07 01:09:36;;;;;;;13.95;5.80;;;9.20;99.90;;;;;;5037657;28;20068;-29
2023/06/07 01:12:05;;;;;;;15.98;5.75;;;9.10;99.90;;;;;;5035682;28;20045;-29
2023/06/07 01:14:32;;;;;;;16.00;5.55;;;9.10;99.90;;;;;;5037319;28;20045;-29
2023/06/07 01:17:02;;;;;;;22.05;6.38;;;9.10;99.90;;;;;;5036448;28;20045;-30
2023/06/07 01:19:29;;;;;;;20.25;6.00;;;9.00;99.90;;;;;;5037250;28;20045;-30
2023/06/07 01:22:05;;;;;;;19.58;6.15;;;9.10;99.90;;;;;;5037125;28;20091;-29
2023/06/07 01:24:35;;;;;;;22.80;6.15;;;9.20;99.90;;;;;;5036613;28;20049;-28
2023/06/07 01:27:02;;;;;;;17.48;5.63;;;9.20;99.90;;;;;;5036562;28;20144;-29
2023/06/07 01:29:30;;;;;;;15.05;5.40;;;9.30;99.90;;;;;;5036814;28;20060;-29
2023/06/07 01:31:58;;;;;;;21.08;5.90;;;9.40;99.90;;;;;;5035266;28;20046;-28
2023/06/07 01:34:25;;;;;;;20.70;5.47;;;9.40;99.90;;;;;;5036107;28;20504;-29
2023/06/07 01:36:54;;;;;;;22.17;5.07;;;9.50;99.90;;;;;;5037188;28;20045;-29
2023/06/07 01:39:21;;;;;;;15.88;5.00;;;9.50;99.90;;;;;;5035427;28;20049;-30
2023/06/07 01:41:49;;;;;;;15.85;4.88;;;9.60;99.90;;;;;;5036122;28;20060;-29
2023/06/07 01:44:15;;;;;;;21.85;5.20;;;9.60;99.90;;;;;;5035098;28;20049;-29
2023/06/07 01:46:42;;;;;;;17.48;4.90;;;9.70;99.90;;;;;;5035683;28;20048;-29
2023/06/07 01:49:08;;;;;;;19.48;5.72;;;9.70;99.90;;;;;;5036186;28;20432;-29
2023/06/07 01:51:35;;;;;;;17.83;4.72;;;9.70;99.90;;;;;;5036673;28;20054;-29
2023/06/07 01:54:01;;;;;;;12.70;4.68;;;9.80;99.90;;;;;;5036364;28;20482;-29
2023/06/07 01:56:39;;;;;;;20.00;4.70;;;9.80;99.90;;;;;;5036000;28;20144;-29
2023/06/07 01:59:31;;;;;;;23.58;5.45;;;9.90;99.90;;;;;;5035995;28;20103;-29
2023/06/07 02:02:04;;;;;;;16.80;5.25;;;10.00;99.90;;;;;;5035965;28;20140;-29
2023/06/07 02:04:34;;;;;;;18.02;5.45;;;10.00;99.90;;;;;;5035776;28;20057;-29
2023/06/07 02:07:05;;;;;;;14.20;4.82;;;10.00;99.90;;;;;;5035869;28;20085;-29
2023/06/07 02:09:38;;;;;;;20.95;4.40;;;10.00;99.90;;;;;;5035807;28;20044;-29
2023/06/07 02:12:06;;;;;;;12.30;4.90;;;10.00;99.90;;;;;;5036069;28;20041;-28
2023/06/07 02:14:32;;;;;;;15.38;4.70;;;10.00;99.90;;;;;;5036228;28;20049;-29
2023/06/07 02:16:58;;;;;;;15.38;4.28;;;10.10;99.90;;;;;;5034428;28;20049;-28
2023/06/07 02:19:24;;;;;;;19.58;4.72;;;10.10;99.90;;;;;;5034948;28;20128;-30
2023/06/07 02:21:50;;;;;;;20.35;5.47;;;10.10;99.90;;;;;;5035453;28;20066;-28
2023/06/07 02:24:17;;;;;;;17.90;4.75;;;10.10;99.90;;;;;;5034611;28;20147;-29
2023/06/07 02:26:43;;;;;;;16.35;5.15;;;10.20;99.90;;;;;;5035383;28;20049;-29
2023/06/07 02:29:09;;;;;;;16.20;4.95;;;10.20;99.90;;;;;;5036054;28;20394;-29
2023/06/07 02:31:35;;;;;;;17.73;5.95;;;10.20;99.90;;;;;;5034429;28;20071;-29
2023/06/07 02:34:00;;;;;;;22.67;7.28;;;10.20;99.90;;;;;;5034447;28;20481;-29
2023/06/07 02:36:32;;;;;;;21.90;6.97;;;10.20;99.90;;;;;;5018213;28;20457;-29
2023/06/07 02:38:58;;;;;;;18.02;5.15;;;10.20;99.90;;;;;;5035129;28;20060;-29
2023/06/07 02:41:25;;;;;;;19.85;6.13;;;10.20;99.90;;;;;;5033995;28;20436;-29
2023/06/07 02:43:50;;;;;;;17.42;6.35;;;10.20;99.90;;;;;;5034201;28;20053;-29
2023/06/07 02:46:16;;;;;;;15.85;5.70;;;10.20;99.90;;;;;;5034724;28;20071;-29
2023/06/07 02:48:42;;;;;;;17.25;4.95;;;10.20;99.90;;;;;;5035561;28;20120;-28
2023/06/07 02:51:08;;;;;;;16.77;4.75;;;10.20;99.90;;;;;;5035277;28;20099;-29
2023/06/07 02:53:33;;;;;;;21.90;5.70;;;10.10;99.90;;;;;;5017273;28;20085;-29
2023/06/07 02:55:59;;;;;;;21.55;4.85;;;10.20;99.90;;;;;;5035428;28;20045;-29
2023/06/07 02:58:25;;;;;;;15.82;4.75;;;10.10;99.90;;;;;;5034038;28;20037;-28
2023/06/07 03:00:52;;;;;;;18.35;4.45;;;10.10;99.90;;;;;;5033604;28;20096;-29
2023/06/07 03:03:18;;;;;;;18.10;6.63;;;10.10;99.90;;;;;;5033790;28;20132;-29
2023/06/07 03:05:49;;;;;;;17.77;4.80;;;10.10;99.90;;;;;;5034687;28;20137;-29
2023/06/07 03:08:16;;;;;;;16.48;4.85;;;10.00;99.90;;;;;;5035320;28;20045;-29
2023/06/07 03:10:41;;;;;;;19.60;5.70;;;10.00;99.90;;;;;;5033626;28;20076;-29
2023/06/07 03:13:07;;;;;;;18.45;4.95;;;10.00;99.90;;;;;;5033393;28;20054;-29
2023/06/07 03:15:33;;;;;;;15.68;5.18;;;9.90;99.90;;;;;;5034507;28;20044;-29
2023/06/07 03:17:59;;;;;;;13.32;4.57;;;10.00;99.90;;;;;;5017104;28;20080;-29
2023/06/07 03:20:24;;;;;;;14.85;4.95;;;10.00;99.90;;;;;;5034132;28;20045;-29
2023/06/07 03:22:50;;;;;;;16.35;4.30;;;10.00;99.90;;;;;;5033234;28;20424;-29
2023/06/07 03:25:16;;;;;;;20.30;5.03;;;10.10;99.90;;;;;;5034258;28;20056;-29
2023/06/07 03:27:42;;;;;;;19.50;5.55;;;10.20;99.90;;;;;;5034004;28;20065;-29
2023/06/07 03:30:08;;;;;;;17.63;4.75;;;10.20;99.90;;;;;;5034250;28;20054;-29
2023/06/07 03:32:34;;;;;;;20.63;5.00;;;10.30;99.90;;;;;;5000460;28;20041;-29
2023/06/07 03:35:00;;;;;;;18.85;4.47;;;10.40;99.90;;;;;;5017627;28;20477;-29
2023/06/07 03:37:26;;;;;;;18.58;5.15;;;10.40;99.90;;;;;;5034122;28;20037;-29
2023/06/07 03:39:51;;;;;;;18.80;4.82;;;10.50;99.90;;;;;;5034877;28;20050;-29
2023/06/07 03:42:17;;;;;;;16.52;3.80;;;10.50;99.90;;;;;;5034652;28;20398;-29
2023/06/07 03:44:43;;;;;;;12.13;4.72;;;10.50;99.90;;;;;;5032836;28;20045;-29
2023/06/07 03:47:09;;;;;;;14.82;5.18;;;10.60;99.90;;;;;;5033929;28;20037;-29
2023/06/07 03:49:35;;;;;;;18.33;5.15;;;10.60;99.90;;;;;;5033939;28;20085;-29
2023/06/07 03:52:00;;;;;;;15.60;4.78;;;10.60;99.90;;;;;;5033579;28;20087;-30
2023/06/07 03:54:26;;;;;;;19.27;5.82;;;10.70;99.90;;;;;;5033545;28;20107;-29
2023/06/07 03:56:52;;;;;;;22.25;5.90;;;10.80;99.90;;;;;;5033799;28;20046;-29
2023/06/07 03:59:20;;;;;;;15.75;6.22;;;10.80;99.90;;;;;;5033826;28;20049;-29
2023/06/07 04:01:48;;;;;;;12.75;5.30;;;10.90;99.90;;;;;;5034542;28;20052;-29
2023/06/07 04:04:14;;;;;;;18.73;5.30;;;11.00;99.90;;;;;;5033591;28;20049;-29
2023/06/07 04:06:39;;;;;;;14.30;5.72;;;11.10;99.90;;;;;;5033678;28;20045;-29
2023/06/07 04:09:07;;;;;;;17.67;5.32;;;11.10;99.90;;;;;;5033679;28;20057;-29
2023/06/07 04:11:33;;;;;;;16.25;4.45;;;11.20;99.90;;;;;;5032503;28;20635;-29
2023/06/07 04:13:59;;;;;;;16.45;4.60;;;11.30;99.90;;;;;;5033636;28;20120;-29
2023/06/07 04:16:25;;;;;;;18.73;4.63;;;11.40;99.90;;;;;;5033664;28;20076;-29
2023/06/07 04:18:50;;;;;;;11.95;3.45;;;11.40;99.90;;;;;;5033609;28;20041;-29
2023/06/07 04:21:16;;;;;;;10.25;3.47;;;11.50;99.90;;;;;;5033072;28;20045;-29
2023/06/07 04:23:42;;;;;;;16.25;4.03;;;11.50;99.90;;;;;;5034355;28;20111;-29
2023/06/07 04:26:08;;;;;;;16.00;4.78;;;11.60;99.90;;;;;;5033078;28;20041;-29
2023/06/07 04:28:34;;;;;;;12.18;3.85;;;11.70;99.90;;;;;;5032110;28;20061;-29
2023/06/07 04:31:00;;;;;;;15.10;3.92;;;11.70;99.90;;;;;;5016102;28;20057;-29
2023/06/07 04:33:27;;;;;;;9.23;3.85;;;11.70;99.90;;;;;;5033441;28;20052;-29
2023/06/07 04:35:59;;;;;;;13.70;3.63;;;11.80;99.90;;;;;;5032408;28;20054;-29
2023/06/07 04:38:25;;;;;;;12.43;2.97;;;11.80;99.90;;;;;;5033452;28;20045;-29
2023/06/07 04:40:52;;;;;;;12.20;2.72;;;11.80;99.90;;;;;;5033013;28;20555;-29
2023/06/07 04:43:18;;;;;;;11.27;3.00;;;11.90;99.90;;;;;;5033833;28;20050;-29
2023/06/07 04:45:54;;;;;;;13.73;3.03;;;11.90;99.90;;;;;;5033244;28;20119;-29
2023/06/07 04:48:29;;;;;;;10.90;2.72;;;11.90;99.90;;;;;;5034055;28;20381;-29
2023/06/07 04:51:13;;;;;;;12.13;3.63;;;12.00;99.90;;;;;;5033284;28;20049;-29
2023/06/07 04:53:41;;;;;;;14.32;3.17;;;12.10;99.90;;;;;;5033906;28;20049;-29
2023/06/07 04:56:08;;;;;;;13.85;2.45;;;12.20;99.90;;;;;;5033231;28;20037;-29
2023/06/07 04:58:33;;;;;;;10.05;3.10;;;12.20;99.90;;;;;;5032000;28;20092;-29
2023/06/07 05:00:59;;;;;;;12.23;2.88;;;12.20;99.90;;;;;;5033198;28;20081;-30
2023/06/07 05:03:25;;;;;;;11.73;3.70;;;12.30;99.90;;;;;;5032158;28;20052;-29
2023/06/07 05:05:53;;;;;;;15.50;3.78;;;12.30;99.90;;;;;;5032057;28;20045;-29
2023/06/07 05:08:19;;;;;;;11.68;2.85;;;12.40;99.90;;;;;;5033711;28;20052;-29
2023/06/07 05:10:46;;;;;;;14.93;3.00;;;12.40;99.90;;;;;;5032790;28;20396;-29
2023/06/07 05:13:11;;;;;;;15.05;3.00;;;12.40;99.90;;;;;;5016472;28;20050;-29
2023/06/07 05:15:37;;;;;;;14.95;3.67;;;12.40;99.90;;;;;;5033328;28;20049;-30
2023/06/07 05:18:03;;;;;;;15.85;3.17;;;12.50;99.90;;;;;;5015429;28;20496;-29
2023/06/07 05:20:29;;;;;;;16.23;5.05;;;12.60;99.90;;;;;;5033211;28;20080;-29
2023/06/07 05:22:56;;;;;;;11.07;2.65;;;12.60;99.90;;;;;;5035452;28;20405;-29
2023/06/07 05:25:22;;;;;;;16.52;3.63;;;12.70;28.70;;;;;;5036839;28;20060;-29
2023/06/07 05:27:49;;;;;;;15.25;3.13;;;12.80;53.70;;;;;;5035218;28;20054;-29
2023/06/07 05:30:15;;;;;;;10.60;2.72;;;12.80;1.00;;;;;;5035533;28;20049;-29
2023/06/07 05:32:41;;;;;;;11.23;2.85;;;13.00;1.00;;;;;;5035311;28;20123;-29
2023/06/07 05:35:08;;;;;;;13.25;3.58;;;13.00;1.00;;;;;;5036442;28;20052;-29
2023/06/07 05:37:34;;;;;;;13.23;2.58;;;13.10;1.00;;;;;;5036444;28;20128;-29
2023/06/07 05:40:00;;;;;;;16.88;4.32;;;13.10;1.00;;;;;;5035239;28;20515;-29
2023/06/07 05:42:26;;;;;;;15.18;3.33;;;13.10;1.00;;;;;;5036284;28;20041;-30
2023/06/07 05:44:53;;;;;;;9.05;2.35;;;13.10;1.00;;;;;;5037002;28;20128;-29
2023/06/07 05:47:25;;;;;;;14.18;3.78;;;13.20;1.00;;;;;;5036664;28;20041;-29
2023/06/07 05:49:53;;;;;;;11.45;3.13;;;13.30;1.00;;;;;;5036287;28;20089;-29
2023/06/07 05:52:19;;;;;;;9.80;2.22;;;13.40;1.00;;;;;;5036171;28;20049;-29
2023/06/07 05:54:50;;;;;;;9.15;2.80;;;13.50;1.00;;;;;;5036068;28;20128;-29
2023/06/07 05:57:16;;;;;;;15.52;2.80;;;13.60;99.90;;;;;;5036004;28;20038;-29
2023/06/07 05:59:42;;;;;;;7.80;2.28;;;13.60;99.90;;;;;;5036057;28;20128;-31
2023/06/07 06:02:08;;;;;;;8.38;3.35;;;13.60;99.90;;;;;;5035626;28;20424;-30
2023/06/07 06:04:34;;;;;;;8.93;3.05;;;13.80;99.90;;;;;;5034391;28;20099;-29
2023/06/07 06:07:02;;;;;;;14.13;4.07;;;13.80;99.90;;;;;;5035794;28;20045;-30
2023/06/07 06:09:29;;;;;;;12.02;2.83;;;13.90;99.90;;;;;;5035515;28;20489;-29
2023/06/07 06:11:55;;;;;;;9.68;2.40;;;13.80;99.90;;;;;;5018611;28;20048;-30
2023/06/07 06:14:25;;;;;;;9.88;2.90;;;13.80;99.90;;;;;;5035787;28;20555;-30
2023/06/07 06:16:51;;;;;;;11.18;2.85;;;13.90;99.90;;;;;;5035716;28;20048;-29
2023/06/07 06:19:17;;;;;;;7.05;2.22;;;14.00;99.90;;;;;;5034921;28;20085;-29
2023/06/07 06:21:42;;;;;;;9.63;2.28;;;14.00;99.90;;;;;;5035293;28;20089;-29
2023/06/07 06:24:08;;;;;;;17.98;3.30;;;13.80;99.90;;;;;;5018907;28;20045;-29
2023/06/07 06:26:34;;;;;;;12.25;3.28;;;13.80;99.90;;;;;;5035407;28;20045;-29
2023/06/07 06:29:00;;;;;;;14.98;3.65;;;13.90;99.90;;;;;;5033986;28;20141;-30
2023/06/07 06:31:26;;;;;;;11.77;3.33;;;14.00;99.90;;;;;;5035113;28;20448;-29
2023/06/07 06:33:52;;;;;;;13.57;2.72;;;14.10;99.90;;;;;;5034660;28;20049;-30
2023/06/07 06:36:17;;;;;;;8.45;2.95;;;14.30;99.90;;;;;;5035370;28;20042;-29
2023/06/07 06:38:43;;;;;;;10.50;2.60;;;14.40;99.90;;;;;;5035261;28;20045;-29
2023/06/07 06:41:10;;;;;;;9.45;2.60;;;14.40;99.90;;;;;;5035214;28;20133;-29
2023/06/07 06:43:36;;;;;;;10.73;3.60;;;14.40;95.70;;;;;;5035956;28;20413;-29
2023/06/07 06:46:02;;;;;;;16.30;3.05;;;14.50;13.90;;;;;;5035629;28;20099;-30
2023/06/07 06:48:28;;;;;;;15.32;3.10;;;;;;;;;;5034382;28;20045;-28
2023/06/07 06:50:53;;;;;;;8.98;2.53;;;14.90;7.70;;;;;;5035023;28;20049;-29
2023/06/07 06:53:19;;;;;;;13.30;3.08;;;15.10;99.90;;;;;;5034925;28;20120;-29
2023/06/07 06:55:45;;;;;;;14.23;3.47;;;15.20;1.00;;;;;;5033676;28;20050;-29
2023/06/07 06:58:11;;;;;;;13.07;3.05;;;15.20;1.00;;;;;;5034844;28;20057;-29
2023/06/07 07:00:39;;;;;;;9.43;3.00;;;15.00;99.90;;;;;;5034803;28;20049;-30
2023/06/07 07:03:05;;;;;;;9.68;2.63;;;15.00;1.00;;;;;;5034707;28;20050;-29
2023/06/07 07:05:31;;;;;;;13.07;3.30;;;14.80;1.00;;;;;;5033556;28;20053;-29
2023/06/07 07:07:58;;;;;;;15.40;3.72;;;14.90;1.00;;;;;;5034683;28;20059;-29
2023/06/07 07:10:24;;;;;;;15.18;3.08;;;15.00;1.00;;;;;;5033939;28;20450;-29
2023/06/07 07:12:49;;;;;;;10.75;3.40;;;15.30;1.00;;;;;;5017075;28;20049;-30
2023/06/07 07:15:15;;;;;;;12.05;3.30;;;15.50;99.90;;;;;;5034501;28;20049;-30
2023/06/07 07:17:48;;;;;;;10.25;2.75;;;15.60;1.00;;;;;;5035149;28;20042;-29
2023/06/07 07:20:15;;;;;;;9.68;2.88;;;16.10;99.90;;;;;;5033125;28;20111;-29
2023/06/07 07:22:43;;;;;;;10.32;2.55;;;16.20;99.90;;;;;;5034071;28;20499;-29
2023/06/07 07:25:09;;;;;;;8.27;2.63;;;17.00;99.90;;;;;;5034338;28;20054;-29
2023/06/07 07:27:35;;;;;;;9.43;2.40;;;17.90;99.90;;;;;;5033983;28;20124;-30
2023/06/07 07:30:01;;;;;;;17.30;3.70;;;18.40;1.00;;;;;;5034289;28;20049;-29
2023/06/07 07:32:27;;;;;;;13.23;2.78;;;18.30;99.90;;;;;;5032670;28;20581;-30
2023/06/07 07:34:55;;;;;;;16.02;3.17;;;17.80;99.90;;;;;;5034684;28;20085;-30
2023/06/07 07:37:21;;;;;;;13.25;3.25;;;17.50;1.00;;;;;;5016799;28;20053;-30
2023/06/07 07:39:46;;;;;;;12.90;3.65;;;17.20;1.00;;;;;;5034105;28;20049;-30
2023/06/07 07:42:12;;;;;;;10.50;2.30;;;17.30;1.00;;;;;;5034308;28;20045;-29
2023/06/07 07:44:38;;;;;;;9.07;2.90;;;17.00;68.80;;;;;;5032906;28;20064;-29
2023/06/07 07:47:05;;;;;;;8.38;2.75;;;17.20;99.90;;;;;;5033841;28;20104;-30
2023/06/07 07:49:31;;;;;;;11.73;2.90;;;17.40;98.30;;;;;;5032966;28;20052;-29
2023/06/07 07:51:57;;;;;;;6.90;2.53;;;17.60;1.00;;;;;;5033884;28;20045;-29
2023/06/07 07:54:22;;;;;;;8.73;2.20;;;17.20;1.00;;;;;;5033906;28;20087;-29
2023/06/07 07:56:48;;;;;;;10.65;2.50;;;17.80;1.00;;;;;;5033196;28;20043;-29
2023/06/07 07:59:14;;;;;;;9.10;2.83;;;18.00;99.90;;;;;;5032531;28;20052;-29
2023/06/07 08:01:40;;;;;;;10.10;2.95;;;17.90;99.90;;;;;;5033754;28;20136;-29
2023/06/07 08:04:05;;;;;;;11.63;2.70;;;17.90;99.90;;;;;;5032767;28;20156;-30
2023/06/07 08:06:32;;;;;;;10.82;2.50;;;18.60;99.90;;;;;;5032394;28;20077;-30
2023/06/07 08:08:58;;;;;;;10.63;2.33;;;18.80;99.90;;;;;;5033392;28;20128;-29
2023/06/07 08:11:25;;;;;;;12.60;2.95;;;18.50;99.90;;;;;;5033696;28;20045;-31
2023/06/07 08:13:50;;;;;;;11.32;3.47;;;17.50;99.90;;;;;;5033628;28;20096;-30
2023/06/07 08:16:16;;;;;;;12.77;2.42;;;17.70;77.30;;;;;;5033616;28;20037;-29
2023/06/07 08:18:44;;;;;;;12.40;2.80;;;17.60;1.00;;;;;;5032441;28;20056;-30
2023/06/07 08:21:12;;;;;;;10.40;3.17;;;17.40;95.50;;;;;;5033507;28;20053;-30
2023/06/07 08:23:38;;;;;;;11.52;2.95;;;17.70;82.10;;;;;;5032406;28;20053;-29
2023/06/07 08:26:03;;;;;;;11.38;3.08;;;17.70;1.00;;;;;;5033413;28;20041;-30
2023/06/07 08:28:29;;;;;;;15.48;3.53;;;18.20;1.00;;;;;;5033723;28;20144;-30
2023/06/07 08:30:55;;;;;;;11.50;3.42;;;19.40;99.90;;;;;;5034007;28;20060;-30
2023/06/07 08:33:21;;;;;;;10.13;2.88;;;19.40;99.90;;;;;;5034002;28;20175;-31
2023/06/07 08:35:47;;;;;;;14.50;4.57;;;19.40;7.60;;;;;;5032763;28;20155;-30
2023/06/07 08:38:13;;;;;;;13.82;2.72;;;19.20;99.90;;;;;;5033408;28;20045;-30
2023/06/07 08:40:38;;;;;;;12.73;3.00;;;19.10;99.90;;;;;;5032432;28;20048;-29
2023/06/07 08:43:05;;;;;;;13.18;3.55;;;19.60;99.90;;;;;;5033323;28;20056;-29
2023/06/07 08:45:31;;;;;;;9.52;3.60;;;20.10;1.00;;;;;;5032339;28;20060;-29
2023/06/07 08:48:04;;;;;;;13.63;3.40;;;20.50;1.00;;;;;;5033320;28;20046;-31
2023/06/07 08:50:30;;;;;;;9.70;3.42;;;21.20;99.90;;;;;;5033935;28;20049;-29
2023/06/07 08:52:58;;;;;;;8.25;3.10;;;21.30;99.90;;;;;;5032115;28;20093;-29
2023/06/07 08:55:25;;;;;;;13.15;3.35;;;21.90;1.00;;;;;;5032535;28;20041;-30
2023/06/07 08:57:52;;;;;;;12.40;3.78;;;21.80;1.00;;;;;;5034632;28;20057;-28
2023/06/07 09:00:25;;;;;;;10.27;3.08;;;21.60;1.00;;;;;;5020419;28;20123;-29
2023/06/07 09:02:52;;;;;;;8.70;3.50;;;21.40;1.00;;;;;;5036175;28;20046;-30
2023/06/07 09:05:22;;;;;;;11.52;2.80;;;21.70;1.00;;;;;;5037651;28;20091;-30
2023/06/07 09:07:48;;;;;;;12.80;3.72;;;21.80;1.00;;;;;;5036939;28;20080;-30
2023/06/07 09:10:17;;;;;;;8.85;2.50;;;21.70;1.00;;;;;;5035880;28;20107;-29
2023/06/07 09:12:45;;;;;;;7.35;2.90;;;20.90;1.00;;;;;;5036748;28;20053;-29
2023/06/07 09:15:20;;;;;;;10.25;3.30;;;20.60;1.00;;;;;;5036838;28;20446;-29
2023/06/07 09:18:04;;;;;;;9.63;3.53;;;20.80;1.00;;;;;;5036808;28;20041;-28
2023/06/07 09:20:31;;;;;;;12.43;3.38;;;20.60;1.00;;;;;;5036688;28;20045;-29
2023/06/07 09:22:58;;;;;;;10.02;3.53;;;20.90;1.00;;;;;;5036702;28;20054;-28
2023/06/07 09:25:25;;;;;;;11.82;3.83;;;20.90;1.00;;;;;;5035372;28;20104;-29
2023/06/07 09:27:51;;;;;;;12.25;3.45;;;20.80;1.00;;;;;;5036271;28;20065;-29
2023/06/07 09:30:19;;;;;;;11.27;3.58;;;20.80;1.00;;;;;;5036513;28;20057;-29
2023/06/07 09:32:45;;;;;;;10.07;3.40;;;21.10;1.00;;;;;;5035231;28;20048;-29
2023/06/07 09:35:16;;;;;;;15.70;4.50;;;21.40;1.00;;;;;;5036471;28;20046;-28
2023/06/07 09:37:46;;;;;;;15.68;4.85;;;21.90;99.90;;;;;;5036873;28;20128;-30
2023/06/07 09:40:13;;;;;;;10.98;3.78;;;22.30;99.90;;;;;;5036640;28;20485;-30
2023/06/07 09:42:40;;;;;;;8.90;3.55;;;22.10;99.90;;;;;;5036251;28;20049;-30
2023/06/07 09:45:14;;;;;;;8.57;3.08;;;22.20;99.90;;;;;;5036469;28;20045;-29
2023/06/07 09:47:42;;;;;;;9.65;4.18;;;22.70;99.90;;;;;;5036130;28;20045;-29
2023/06/07 09:50:12;;;;;;;11.32;3.33;;;22.80;99.90;;;;;;5036196;28;20144;-29
2023/06/07 09:52:39;;;;;;;12.88;3.70;;;22.90;99.90;;;;;;5035888;28;20532;-29
2023/06/07 09:55:06;;;;;;;10.10;3.67;;;22.80;99.90;;;;;;5035531;28;20060;-29
2023/06/07 09:57:34;;;;;;;11.85;3.58;;;22.90;99.90;;;;;;5036107;28;20053;-29
2023/06/07 10:00:13;;;;;;;10.20;3.08;;;22.70;99.90;;;;;;5018532;28;20054;-29
2023/06/07 10:02:43;;;;;;;11.43;3.55;;;22.80;99.90;;;;;;5035311;28;20052;-29
2023/06/07 10:05:12;;;;;;;8.05;2.92;;;22.70;99.90;;;;;;5035886;28;20152;-29
2023/06/07 10:07:43;;;;;;;10.63;3.20;;;22.80;99.90;;;;;;5036033;28;20049;-29
2023/06/07 10:10:14;;;;;;;13.75;3.80;;;23.00;99.90;;;;;;5035704;28;20080;-29
2023/06/07 10:12:44;;;;;;;10.30;3.20;;;22.80;99.90;;;;;;5035757;28;20049;-29
2023/06/07 10:15:13;;;;;;;8.77;3.58;;;22.30;99.50;;;;;;5036330;28;20053;-29
2023/06/07 10:17:54;;;;;;;10.63;3.38;;;22.80;99.90;;;;;;5035371;28;20489;-29
2023/06/07 10:20:41;;;;;;;8.80;3.28;;;22.80;6.40;;;;;;5036153;28;20050;-30
2023/06/07 10:23:10;;;;;;;7.82;2.95;;;22.50;1.00;;;;;;5035614;28;20079;-29
2023/06/07 10:26:03;;;;;;;11.35;3.50;;;22.50;40.80;;;;;;5034196;28;20497;-29
2023/06/07 10:28:36;;;;;;;9.10;2.90;;;22.50;53.20;;;;;;5035243;28;20053;-29
2023/06/07 10:31:08;;;;;;;8.48;2.67;;;22.80;99.90;;;;;;5035461;28;20092;-29
2023/06/07 10:33:34;;;;;;;10.93;3.35;;;23.00;99.90;;;;;;5035400;28;20049;-29
2023/06/07 10:36:00;;;;;;;13.70;4.45;;;23.40;99.90;;;;;;5035348;28;20045;-30
2023/06/07 10:38:33;;;;;;;9.38;3.60;;;23.90;98.80;;;;;;5035753;28;20505;-29
2023/06/07 10:41:01;;;;;;;11.80;3.75;;;23.80;9.50;;;;;;5035155;28;20485;-29
2023/06/07 10:43:29;;;;;;;12.77;4.63;;;23.90;42.60;;;;;;5035172;28;20045;-29
2023/06/07 10:46:21;;;;;;;16.90;5.28;;;23.80;1.00;;;;;;5035822;28;20037;-30
2023/06/07 10:48:47;;;;;;;12.10;3.63;;;23.70;1.00;;;;;;5035711;28;20053;-30
2023/06/07 10:51:13;;;;;;;12.80;3.47;;;23.80;1.00;;;;;;5034073;28;20318;-29
2023/06/07 10:53:52;;;;;;;12.63;4.20;;;23.90;1.00;;;;;;5033826;28;20045;-29
2023/06/07 10:56:28;;;;;;;12.45;3.95;;;22.80;1.00;;;;;;5034919;28;20080;-30
2023/06/07 10:58:55;;;;;;;9.18;3.50;;;23.10;1.00;;;;;;5034857;28;20053;-29
2023/06/07 11:01:25;;;;;;;10.27;3.50;;;23.20;1.00;;;;;;5035599;28;20055;-30
2023/06/07 11:03:51;;;;;;;10.20;3.60;;;23.20;1.00;;;;;;5034735;28;20489;-30
2023/06/07 11:06:17;;;;;;;11.23;3.63;;;23.30;1.00;;;;;;5034658;28;20037;-29
2023/06/07 11:08:43;;;;;;;11.90;3.42;;;23.70;1.00;;;;;;5000956;28;20532;-29
2023/06/07 11:11:40;;;;;;;8.10;3.58;;;23.40;1.00;;;;;;5033502;28;20080;-29
2023/06/07 11:14:05;;;;;;;12.52;3.15;;;23.90;1.00;;;;;;5034514;28;20041;-30
2023/06/07 11:16:31;;;;;;;12.23;4.15;;;24.00;1.00;;;;;;5034595;28;20041;-29
2023/06/07 11:19:05;;;;;;;12.85;3.17;;;24.10;1.00;;;;;;5033057;28;20481;-31
2023/06/07 11:21:53;;;;;;;8.32;3.35;;;23.70;1.00;;;;;;5034528;28;20049;-29
2023/06/07 11:24:20;;;;;;;8.68;2.70;;;23.20;1.00;;;;;;5034571;28;20107;-29
2023/06/07 11:26:48;;;;;;;8.15;3.03;;;23.20;1.00;;;;;;5034595;28;20124;-30
2023/06/07 11:29:19;;;;;;;7.93;3.08;;;23.90;1.00;;;;;;5034563;28;20477;-30
2023/06/07 11:32:03;;;;;;;12.20;3.63;;;24.00;1.00;;;;;;5033716;28;20046;-30
2023/06/07 11:34:33;;;;;;;9.80;3.35;;;24.50;1.00;;;;;;5034393;28;20092;-30
2023/06/07 11:37:16;;;;;;;8.85;3.55;;;24.30;1.00;;;;;;5016799;28;20053;-30
2023/06/07 11:39:43;;;;;;;12.18;3.60;;;24.50;1.00;;;;;;5034467;28;20137;-30
2023/06/07 11:42:08;;;;;;;11.40;3.45;;;24.20;1.00;;;;;;5034137;28;20058;-29
2023/06/07 11:44:35;;;;;;;9.82;4.05;;;24.50;1.00;;;;;;5034016;28;20052;-30
2023/06/07 11:47:08;;;;;;;11.10;3.35;;;24.70;1.00;;;;;;5032724;28;20037;-30
2023/06/07 11:49:35;;;;;;;12.98;3.67;;;24.90;1.00;;;;;;5034020;28;20081;-30
2023/06/07 11:52:01;;;;;;;10.63;3.15;;;24.70;1.00;;;;;;5032807;28;20051;-29
2023/06/07 11:54:27;;;;;;;10.43;3.35;;;24.40;1.00;;;;;;5033961;28;20420;-29
2023/06/07 11:56:53;;;;;;;11.07;3.47;;;24.30;1.00;;;;;;5033581;28;20536;-30
2023/06/07 11:59:23;;;;;;;11.82;3.63;;;23.90;1.00;;;;;;5033864;28;20046;-30
2023/06/07 12:01:53;;;;;;;7.20;3.47;;;23.70;1.00;;;;;;5034388;28;20045;-30
2023/06/07 12:04:22;;;;;;;9.80;3.25;;;24.00;99.90;;;;;;5016113;28;20136;-29
2023/06/07 12:06:51;;;;;;;10.25;3.58;;;24.00;99.90;;;;;;5033681;28;20088;-31
2023/06/07 12:09:18;;;;;;;12.32;3.60;;;24.00;99.90;;;;;;5034019;28;20049;-29
2023/06/07 12:11:48;;;;;;;7.25;2.70;;;24.20;99.90;;;;;;5033704;28;20053;-29
2023/06/07 12:14:33;;;;;;;10.20;2.95;;;23.90;99.90;;;;;;5034495;28;20045;-30
2023/06/07 12:17:00;;;;;;;8.18;3.00;;;23.60;99.90;;;;;;5033932;28;20045;-29
2023/06/07 12:19:26;;;;;;;11.10;3.45;;;23.60;99.90;;;;;;5034426;28;20054;-29
2023/06/07 12:21:52;;;;;;;7.85;3.10;;;23.60;99.90;;;;;;5033511;28;20054;-29
2023/06/07 12:24:18;;;;;;;9.68;3.25;;;23.50;99.90;;;;;;5033481;28;20481;-29
2023/06/07 12:26:44;;;;;;;11.27;3.22;;;23.90;99.90;;;;;;5034173;28;20037;-29
2023/06/07 12:29:12;;;;;;;7.97;3.35;;;24.10;1.00;;;;;;5033183;28;20115;-30
2023/06/07 12:31:40;;;;;;;13.07;3.80;;;24.30;1.00;;;;;;5035781;28;20053;-30
2023/06/07 12:34:08;;;;;;;10.07;3.42;;;24.40;99.90;;;;;;5036657;28;20061;-30
2023/06/07 12:36:36;;;;;;;8.63;3.15;;;23.80;99.90;;;;;;5038361;28;20119;-29
2023/06/07 12:39:07;;;;;;;8.35;3.25;;;23.30;99.90;;;;;;5036595;28;20133;-29
2023/06/07 12:41:33;;;;;;;9.98;2.90;;;23.50;1.00;;;;;;5037296;28;20065;-29
2023/06/07 12:44:07;;;;;;;7.18;3.10;;;23.50;1.00;;;;;;5037443;28;20049;-30
2023/06/07 12:46:33;;;;;;;9.43;3.00;;;23.00;1.00;;;;;;5038142;28;20052;-30